Time;durP1;ratioP1;P1;durP2;ratioP2;P2;SDS_P1;SDS_P2;PMS_P1;PMS_P2;Temp;Humidity;BMP_temperature;BMP_pressure;BME280_temperature;BME280_humidity;BME280_pressure;Samples;Min_cycle;Max_cycle;Signal;HPM_P1;HPM_P2
2021/01/22 00:09:11;;;;;;;3.60;0.60;;;10.80;99.90;;;;;;6751757;88;20184;-77
2021/01/22 00:19:11;;;;;;;2.37;0.65;;;10.80;99.90;;;;;;6756259;88;20181;-78
2021/01/22 00:29:12;;;;;;;4.22;0.50;;;11.00;99.90;;;;;;6752547;88;20200;-78
2021/01/22 00:39:12;;;;;;;2.78;0.60;;;10.90;99.90;;;;;;6752181;88;20643;-78
2021/01/22 00:49:13;;;;;;;3.50;0.50;;;11.00;99.90;;;;;;6749140;88;20181;-77
2021/01/22 00:59:14;;;;;;;3.30;0.60;;;10.90;99.90;;;;;;6751199;88;20213;-77
2021/01/22 01:09:15;;;;;;;3.17;0.50;;;11.00;99.90;;;;;;6750419;88;20271;-77
2021/01/22 01:19:16;;;;;;;2.67;0.47;;;11.00;99.90;;;;;;6745731;88;20663;-78
2021/01/22 01:29:16;;;;;;;1.58;0.50;;;11.00;99.90;;;;;;6746243;88;20205;-76
2021/01/22 01:39:17;;;;;;;1.50;0.30;;;10.90;99.90;;;;;;6753132;88;20223;-77
2021/01/22 01:49:17;;;;;;;2.22;0.40;;;10.70;99.90;;;;;;6750277;88;20205;-76
2021/01/22 01:59:18;;;;;;;1.77;0.40;;;10.60;99.90;;;;;;6749430;88;20587;-76
2021/01/22 02:09:19;;;;;;;1.00;0.28;;;10.60;99.90;;;;;;6751122;88;20570;-76
2021/01/22 02:19:32;;;;;;;2.05;0.28;;;10.50;99.90;;;;;;6749049;88;20190;-76
2021/01/22 02:29:36;;;;;;;0.62;0.20;;;10.40;99.90;;;;;;6749213;88;20200;-77
2021/01/22 02:39:54;;;;;;;1.55;0.10;;;10.50;99.90;;;;;;6747690;88;20165;-77
2021/01/22 02:49:55;;;;;;;0.50;0.17;;;9.80;99.90;;;;;;6754733;88;21059;-76
2021/01/22 03:00:30;;;;;;;1.17;0.20;;;7.30;99.90;;;;;;6753588;88;20310;-79
2021/01/22 03:10:32;;;;;;;2.22;0.45;;;6.60;99.90;;;;;;6744570;88;21182;-79
2021/01/22 03:20:33;;;;;;;0.57;0.20;;;6.30;99.90;;;;;;6751354;88;20188;-77
2021/01/22 03:30:34;;;;;;;1.27;0.25;;;5.70;99.90;;;;;;6763190;88;20691;-76
2021/01/22 03:40:35;;;;;;;2.00;0.80;;;5.50;99.90;;;;;;6759053;88;20204;-76
2021/01/22 03:50:36;;;;;;;2.12;1.10;;;5.40;99.90;;;;;;6751535;88;20297;-78
2021/01/22 04:00:37;;;;;;;3.08;1.70;;;5.20;99.90;;;;;;6763049;87;20688;-76
2021/01/22 04:10:37;;;;;;;2.50;1.58;;;5.10;99.90;;;;;;6757595;88;20196;-76
2021/01/22 04:20:38;;;;;;;2.10;1.20;;;5.10;99.90;;;;;;6762262;88;20979;-80
2021/01/22 04:30:38;;;;;;;2.00;1.05;;;5.10;99.90;;;;;;6746444;88;20239;-76
2021/01/22 04:40:39;;;;;;;3.07;1.10;;;5.00;99.90;;;;;;6747716;88;20213;-77
2021/01/22 04:50:40;;;;;;;2.75;1.20;;;4.90;99.90;;;;;;6747639;88;20561;-77
2021/01/22 05:00:41;;;;;;;3.37;0.98;;;5.00;99.90;;;;;;6746429;88;20556;-77
2021/01/22 05:10:41;;;;;;;2.25;1.00;;;4.90;99.90;;;;;;6746816;88;20181;-76
2021/01/22 05:20:45;;;;;;;1.60;0.70;;;4.90;99.90;;;;;;6745648;88;20658;-76
2021/01/22 05:30:56;;;;;;;1.62;0.60;;;4.70;99.90;;;;;;6748726;88;20189;-77
2021/01/22 05:40:58;;;;;;;1.15;0.55;;;4.80;99.90;;;;;;6747885;88;20202;-76
2021/01/22 05:50:59;;;;;;;1.23;0.60;;;4.80;99.90;;;;;;6750940;88;20608;-76
2021/01/22 06:01:07;;;;;;;1.40;0.55;;;4.70;99.90;;;;;;6751557;88;20259;-77
2021/01/22 06:11:08;;;;;;;1.92;0.52;;;4.80;99.90;;;;;;6748000;88;20185;-76
2021/01/22 06:21:14;;;;;;;3.05;0.68;;;4.80;99.90;;;;;;6745984;88;20219;-77
2021/01/22 06:31:19;;;;;;;1.37;0.33;;;4.80;99.90;;;;;;6742323;88;20323;-77
2021/01/22 06:41:28;;;;;;;0.90;0.40;;;5.00;99.90;;;;;;6744713;88;20212;-76
2021/01/22 06:51:30;;;;;;;2.20;0.50;;;4.90;99.90;;;;;;6742547;88;20204;-76
2021/01/22 07:01:33;;;;;;;2.15;0.50;;;4.90;99.90;;;;;;6743045;88;20200;-77
2021/01/22 07:11:50;;;;;;;2.17;0.50;;;4.90;99.90;;;;;;6743144;88;20676;-76
2021/01/22 07:21:51;;;;;;;2.12;0.40;;;4.80;99.90;;;;;;6749260;88;20200;-78
2021/01/22 07:32:01;;;;;;;1.92;0.40;;;4.80;99.90;;;;;;6744416;88;20187;-78
2021/01/22 07:42:08;;;;;;;1.33;0.30;;;4.80;99.90;;;;;;6738868;88;20213;-77
2021/01/22 07:52:08;;;;;;;1.48;0.28;;;4.80;99.90;;;;;;6742608;88;20208;-78
2021/01/22 08:02:20;;;;;;;2.42;0.40;;;4.70;99.90;;;;;;6744385;88;20292;-77
2021/01/22 08:12:21;;;;;;;1.58;0.40;;;4.80;99.90;;;;;;6747208;88;20197;-77
2021/01/22 08:22:21;;;;;;;1.37;0.40;;;4.70;99.90;;;;;;6740740;88;20298;-76
2021/01/22 08:32:22;;;;;;;1.20;0.40;;;4.80;99.90;;;;;;6738358;88;20201;-76
2021/01/22 08:42:23;;;;;;;2.78;0.50;;;4.90;99.90;;;;;;6743105;88;20219;-76
2021/01/22 08:52:25;;;;;;;1.40;0.30;;;4.80;99.90;;;;;;6740038;88;20691;-75
2021/01/22 09:02:44;;;;;;;2.00;0.47;;;4.90;99.90;;;;;;6748429;88;20312;-74
2021/01/22 09:12:44;;;;;;;1.50;0.30;;;4.80;99.90;;;;;;6745748;88;20695;-75
2021/01/22 09:22:47;;;;;;;0.98;0.30;;;4.90;99.90;;;;;;6753159;88;20316;-77
2021/01/22 09:32:50;;;;;;;2.03;0.30;;;5.00;99.90;;;;;;6742770;88;20205;-76
2021/01/22 09:42:50;;;;;;;0.65;0.22;;;5.00;99.90;;;;;;6742987;88;20254;-74
2021/01/22 09:52:51;;;;;;;2.85;0.60;;;5.00;99.90;;;;;;6740879;87;20223;-75
2021/01/22 10:02:51;;;;;;;2.15;0.50;;;5.30;99.90;;;;;;6746047;88;20181;-75
2021/01/22 10:12:52;;;;;;;2.70;0.40;;;5.40;99.90;;;;;;6746583;88;20205;-76
2021/01/22 10:22:53;;;;;;;1.62;0.70;;;5.50;99.90;;;;;;6747479;88;21055;-76
2021/01/22 10:32:53;;;;;;;1.75;0.40;;;5.80;99.90;;;;;;6749334;88;20235;-74
2021/01/22 10:42:54;;;;;;;2.00;0.47;;;6.00;99.90;;;;;;6752269;88;20553;-75
2021/01/22 10:52:54;;;;;;;3.87;0.70;;;6.30;99.90;;;;;;6748265;88;20669;-75
2021/01/22 11:02:55;;;;;;;2.15;0.77;;;6.60;99.90;;;;;;6752778;88;20229;-75
2021/01/22 11:12:56;;;;;;;1.90;0.60;;;6.70;99.90;;;;;;6749888;88;20173;-75
2021/01/22 11:22:56;;;;;;;1.20;0.45;;;6.80;99.90;;;;;;6747215;88;20637;-76
2021/01/22 11:32:58;;;;;;;1.42;0.50;;;7.10;99.90;;;;;;6755094;77;20594;-76
2021/01/22 11:42:59;;;;;;;1.70;0.70;;;7.30;99.90;;;;;;6750093;87;20211;-75
2021/01/22 11:53:00;;;;;;;2.55;0.80;;;7.60;99.90;;;;;;6751033;88;20200;-76
2021/01/22 12:03:00;;;;;;;2.47;0.70;;;7.60;99.90;;;;;;6750818;88;20234;-75
2021/01/22 12:13:01;;;;;;;3.17;0.73;;;7.50;99.90;;;;;;6745121;88;20251;-75
2021/01/22 12:23:01;;;;;;;4.37;0.70;;;7.60;99.90;;;;;;6733438;88;20580;-74
2021/01/22 12:33:02;;;;;;;2.25;0.60;;;7.80;99.90;;;;;;6741181;88;20291;-74
2021/01/22 12:43:03;;;;;;;3.10;0.77;;;7.80;99.90;;;;;;6744938;88;20189;-75
2021/01/22 12:53:04;;;;;;;2.17;0.70;;;7.90;99.90;;;;;;6746883;88;20249;-75
2021/01/22 13:03:05;;;;;;;2.53;0.80;;;8.00;99.90;;;;;;6745896;88;20562;-73
2021/01/22 13:13:06;;;;;;;5.50;1.23;;;8.00;99.90;;;;;;6752474;88;20208;-75
2021/01/22 13:23:06;;;;;;;3.03;0.70;;;7.90;99.90;;;;;;6751820;88;20184;-74
2021/01/22 13:33:07;;;;;;;1.58;0.88;;;7.90;99.90;;;;;;6747981;88;20268;-74
2021/01/22 13:43:08;;;;;;;2.93;1.10;;;8.00;99.90;;;;;;6743334;88;20241;-74
2021/01/22 13:53:08;;;;;;;5.03;0.90;;;8.00;99.90;;;;;;6753405;88;20617;-76
2021/01/22 14:03:09;;;;;;;5.50;0.82;;;7.90;99.90;;;;;;6761176;88;20219;-73
2021/01/22 14:13:09;;;;;;;2.60;0.90;;;7.80;99.90;;;;;;6745179;88;20182;-73
2021/01/22 14:23:10;;;;;;;2.20;0.52;;;8.00;99.90;;;;;;6744610;88;20202;-74
2021/01/22 14:33:11;;;;;;;3.58;0.60;;;7.90;99.90;;;;;;6757084;88;20217;-74
2021/01/22 14:43:11;;;;;;;3.50;0.77;;;8.00;99.90;;;;;;6743639;88;20197;-73
2021/01/22 14:53:12;;;;;;;3.75;0.65;;;8.20;99.90;;;;;;6739986;88;20548;-73
2021/01/22 15:03:13;;;;;;;3.95;1.00;;;8.30;99.90;;;;;;6744698;88;20559;-74
2021/01/22 15:13:13;;;;;;;3.78;0.80;;;8.60;99.90;;;;;;6746621;88;20206;-73
2021/01/22 15:23:14;;;;;;;4.68;1.05;;;8.60;99.90;;;;;;6747667;88;20216;-73
2021/01/22 15:33:15;;;;;;;2.95;0.90;;;8.00;99.90;;;;;;6751965;88;20231;-74
2021/01/22 15:43:15;;;;;;;5.03;1.20;;;7.30;99.90;;;;;;6748308;88;20241;-74
2021/01/22 15:53:16;;;;;;;5.05;1.30;;;7.00;99.90;;;;;;6751395;88;20226;-74
2021/01/22 16:03:17;;;;;;;3.70;1.40;;;6.60;99.90;;;;;;6750241;88;20189;-74
2021/01/22 16:13:18;;;;;;;4.45;2.00;;;6.40;99.90;;;;;;6744329;88;20195;-75
2021/01/22 16:23:18;;;;;;;6.85;3.20;;;6.10;99.90;;;;;;6739891;88;20723;-73
2021/01/22 16:33:19;;;;;;;8.30;2.40;;;5.60;99.90;;;;;;6744023;88;20192;-74
2021/01/22 16:43:20;;;;;;;6.28;2.50;;;5.30;99.90;;;;;;6743145;88;20311;-73
2021/01/22 16:53:21;;;;;;;7.47;2.97;;;5.10;99.90;;;;;;6743304;88;20176;-73
2021/01/22 17:03:22;;;;;;;6.00;2.85;;;5.20;99.90;;;;;;6741831;88;20211;-73
2021/01/22 17:13:22;;;;;;;6.35;3.37;;;5.00;99.90;;;;;;6750900;88;20274;-74
2021/01/22 17:23:23;;;;;;;20.42;6.82;;;4.70;99.90;;;;;;6749642;88;20683;-74
2021/01/22 17:33:24;;;;;;;10.52;4.68;;;4.70;99.90;;;;;;6714949;76;20180;-72
2021/01/22 17:43:24;;;;;;;12.37;5.47;;;4.60;99.90;;;;;;6655136;88;21068;-74
2021/01/22 17:53:25;;;;;;;10.27;4.35;;;4.60;99.90;;;;;;6646755;88;20197;-76
2021/01/22 18:03:25;;;;;;;8.07;3.60;;;4.70;99.90;;;;;;6645877;88;20201;-74
2021/01/22 18:13:26;;;;;;;12.48;5.20;;;4.50;99.90;;;;;;6648813;88;20204;-75
2021/01/22 18:23:27;;;;;;;17.30;6.47;;;4.50;99.90;;;;;;6645717;88;20697;-75
2021/01/22 18:33:27;;;;;;;13.60;7.22;;;4.40;99.90;;;;;;6645216;88;20238;-74
2021/01/22 18:43:28;;;;;;;16.05;7.28;;;4.20;99.90;;;;;;6646137;88;20636;-75
2021/01/22 18:53:28;;;;;;;13.97;5.63;;;4.00;99.90;;;;;;6646069;88;20209;-75
2021/01/22 19:03:30;;;;;;;11.05;5.30;;;4.00;99.90;;;;;;6647207;89;20503;-76
2021/01/22 19:13:31;;;;;;;10.85;5.68;;;3.90;99.90;;;;;;6648643;88;20651;-75
2021/01/22 19:23:31;;;;;;;11.65;5.75;;;4.00;99.90;;;;;;6650895;88;20234;-75
2021/01/22 19:33:32;;;;;;;8.95;4.15;;;3.70;99.90;;;;;;6648995;88;20276;-74
2021/01/22 19:43:33;;;;;;;11.38;5.12;;;4.00;99.90;;;;;;6643618;88;20246;-74
2021/01/22 19:53:34;;;;;;;17.37;5.57;;;3.70;99.90;;;;;;6646723;88;20692;-75
2021/01/22 20:03:34;;;;;;;14.98;6.37;;;3.70;99.90;;;;;;6645300;88;20247;-75
2021/01/22 20:13:35;;;;;;;12.03;5.93;;;3.70;99.90;;;;;;6646347;88;20694;-75
2021/01/22 20:23:38;;;;;;;12.20;5.37;;;3.60;99.90;;;;;;6642603;88;20697;-75
2021/01/22 20:33:38;;;;;;;9.93;5.50;;;3.60;99.90;;;;;;6637403;88;20204;-74
2021/01/22 20:43:40;;;;;;;13.43;6.10;;;3.50;99.90;;;;;;6644166;88;20203;-75
2021/01/22 20:53:40;;;;;;;10.82;5.40;;;3.50;99.90;;;;;;6650387;88;20189;-75
2021/01/22 21:03:41;;;;;;;10.23;5.03;;;3.40;99.90;;;;;;6649748;88;20191;-74
2021/01/22 21:13:41;;;;;;;11.55;5.65;;;3.60;99.90;;;;;;6653922;88;21366;-74
2021/01/22 21:23:42;;;;;;;11.40;5.22;;;3.60;99.90;;;;;;6657581;88;20185;-74
2021/01/22 21:33:42;;;;;;;12.30;5.62;;;3.60;99.90;;;;;;6651402;88;20667;-76
2021/01/22 21:43:43;;;;;;;12.25;6.00;;;3.50;99.90;;;;;;6647794;88;20541;-74
2021/01/22 21:53:43;;;;;;;12.37;5.80;;;3.30;99.90;;;;;;6638938;88;20278;-74
2021/01/22 22:03:44;;;;;;;11.35;5.65;;;3.10;99.90;;;;;;6643167;88;20201;-74
2021/01/22 22:13:45;;;;;;;11.60;5.90;;;3.20;99.90;;;;;;6647143;88;20240;-73
2021/01/22 22:23:45;;;;;;;13.80;6.00;;;3.20;99.90;;;;;;6641751;88;20293;-73
2021/01/22 22:33:46;;;;;;;9.35;5.10;;;3.00;99.90;;;;;;6648099;88;20267;-73
2021/01/22 22:43:48;;;;;;;9.65;4.95;;;3.20;99.90;;;;;;6644503;88;20206;-74
2021/01/22 22:53:49;;;;;;;11.70;5.72;;;3.00;99.90;;;;;;6636178;88;20604;-73
2021/01/22 23:03:49;;;;;;;9.80;5.53;;;3.10;99.90;;;;;;6636257;88;20218;-73
2021/01/22 23:13:50;;;;;;;13.50;5.12;;;3.10;99.90;;;;;;6638953;88;20202;-74
2021/01/22 23:23:50;;;;;;;12.20;4.57;;;3.00;99.90;;;;;;6642198;88;20197;-74
2021/01/22 23:33:51;;;;;;;8.40;4.70;;;3.00;99.90;;;;;;6638244;88;20224;-73
2021/01/22 23:43:52;;;;;;;10.40;4.25;;;3.00;99.90;;;;;;6649272;88;20218;-72
2021/01/22 23:53:52;;;;;;;10.25;4.10;;;3.00;99.90;;;;;;6648539;88;20185;-72
